Flight Track Log - Related Links

Times and Time Zones

All times are in EST time to prevent confusion due to time zone crossing. See the N45NS flight status page for this flight to view local times or setup timezone preferences in your user account.

Time Position Orientation Groundspeed Altitude Reporting Facility
EST Latitude Longitude Course Direction KTS MPH feet Rate Location/Type
Sun 01:25:20 PM 40.8689 -81.8497 138° Southeast 209 241 2,300  Level Indianapolis Center
Sun 01:26:23 PM 40.8111 -81.7808 138° Southeast 243 280 5,300 3,168 Climbing Cleveland Center
Sun 01:27:25 PM 40.7317 -81.7881 184° South 285 328 8,900 3,242 Climbing Cleveland Center
Sun 01:28:27 PM 40.6475 -81.7953 184° South 297 342 12,000 2,508 Climbing Cleveland Center
Sun 01:29:27 PM 40.5542 -81.8031 184° South 328 377 14,000 1,623 Climbing Indianapolis Center
Sun 01:30:29 PM 40.4503 -81.8122 184° South 366 421 15,300 1,742 Climbing Indianapolis Center
Sun 01:31:31 PM 40.3450 -81.8222 184° South 375 432 17,600 2,177 Climbing Indianapolis Center
Sun 01:32:33 PM 40.2339 -81.8325 184° South 376 433 19,800 2,032 Climbing Indianapolis Center
Sun 01:33:35 PM 40.1289 -81.8419 184° South 379 436 21,800 1,984 Climbing Indianapolis Center
Sun 01:34:37 PM 40.0169 -81.8511 184° South 397 457 23,900 1,742 Climbing Indianapolis Center
Sun 01:35:39 PM 39.9042 -81.8608 184° South 404 465 25,400 1,500 Climbing Indianapolis Center
Sun 01:36:41 PM 39.7881 -81.8814 188° South 417 480 27,000 1,935 Climbing Indianapolis Center
Sun 01:37:43 PM 39.6708 -81.9181 194° South 405 466 29,400 2,112 Climbing Indianapolis Center
Sun 01:38:46 PM 39.5617 -81.9367 187° South 397 457 31,400 1,248 Climbing Indianapolis Center
Sun 01:39:48 PM 39.4283 -81.9433 182° South 399 459 32,000 387 Climbing Indianapolis Center
Sun 01:40:50 PM 39.3075 -81.9486 182° South 428 493 32,200 581 Climbing Indianapolis Center
Sun 01:41:52 PM 39.1856 -81.9269 172° South 439 505 33,200 919 Climbing Indianapolis Center
Sun 01:42:54 PM 39.0681 -81.9136 175° South 425 489 34,100 871 Climbing Indianapolis Center
Sun 01:43:56 PM 38.9564 -81.9261 185° South 405 466 35,000 774 Climbing Indianapolis Center
Sun 01:44:58 PM 38.8431 -81.9347 183° South 410 472 35,700 1,306 Climbing Indianapolis Center
Sun 01:46:00 PM 38.7156 -81.9461 184° South 383 441 37,700 1,561 Climbing Indianapolis Center
Sun 01:47:01 PM 38.6161 -81.9550 184° South 364 419 38,900 1,024 Climbing Indianapolis Center
Sun 01:48:03 PM 38.5192 -81.9636 184° South 353 406 39,800 532 Climbing Indianapolis Center
Sun 01:49:05 PM 38.4219 -81.9719 184° South 351 404 40,000 97 Climbing Indianapolis Center
Sun 01:50:07 PM 38.3172 -81.9811 184° South 372 428 40,000  Level Indianapolis Center
Sun 01:51:09 PM 38.2089 -81.9903 184° South 386 444 40,000  Level Indianapolis Center
Sun 01:52:11 PM 38.0725 -82.0011 184° South 406 467 40,000  Level Indianapolis Center
Sun 01:53:13 PM 37.9597 -82.0111 184° South 405 466 40,000  Level Indianapolis Center
Sun 01:54:15 PM 37.8444 -82.0192 183° South 412 474 40,000  Level Indianapolis Center
Sun 01:55:17 PM 37.7244 -82.0300 184° South 408 470 40,000  Level Indianapolis Center
Sun 01:56:19 PM 37.6103 -82.0400 184° South 408 470 40,000  Level Indianapolis Center
Sun 01:57:21 PM 37.4964 -82.0483 183° South 408 470 40,000  Level Indianapolis Center
Sun 01:58:23 PM 37.3839 -82.0583 184° South 405 466 40,000  Level Indianapolis Center
Sun 01:59:25 PM 37.2506 -82.0689 184° South 408 470 40,000  Level Indianapolis Center
Sun 02:00:27 PM 37.1369 -82.0786 184° South 406 467 40,000  Level Indianapolis Center
Sun 02:01:29 PM 37.0222 -82.0883 184° South 409 471 40,000  Level Indianapolis Center
Sun 02:02:31 PM 36.9075 -82.0972 184° South 410 472 40,000  Level Indianapolis Center
Sun 02:03:09 PM 36.8272 -82.1042 184° South 413 475 40,000  Level Atlanta Center
Sun 02:04:09 PM 36.7147 -82.1122 183° South 408 470 40,000  Level Atlanta Center
Sun 02:05:09 PM 36.6022 -82.1225 184° South 408 470 40,000  Level Atlanta Center
Sun 02:06:09 PM 36.4897 -82.1303 183° South 408 470 40,000  Level Atlanta Center
Sun 02:07:09 PM 36.3753 -82.1408 184° South 408 470 40,000  Level Atlanta Center
Sun 02:08:09 PM 36.2606 -82.1514 184° South 408 470 40,000  Level Atlanta Center
Sun 02:09:09 PM 36.1564 -82.1564 182° South 394 453 40,000  Level Atlanta Center
Sun 02:10:09 PM 36.0400 -82.1694 185° South 407 468 40,000  Level Atlanta Center
Sun 02:11:09 PM 35.9233 -82.1797 184° South 407 468 40,000  Level Atlanta Center
Sun 02:12:09 PM 35.8044 -82.1928 185° South 413 475 40,000  Level Atlanta Center
Sun 02:13:09 PM 35.7108 -82.1972 182° South 422 486 40,000  Level Atlanta Center
Sun 02:14:09 PM 35.5939 -82.2075 184° South 417 480 40,000  Level Atlanta Center
Sun 02:15:09 PM 35.4794 -82.2153 183° South 411 473 40,000  Level Atlanta Center
Sun 02:16:09 PM 35.3647 -82.2228 183° South 416 479 40,000  Level Atlanta Center
Sun 02:17:09 PM 35.2522 -82.2356 185° South 416 479 40,000  Level Atlanta Center
Sun 02:18:09 PM 35.1375 -82.2431 183° South 416 479 40,000  Level Atlanta Center
Sun 02:19:09 PM 35.0231 -82.2531 184° South 421 484 40,000  Level Atlanta Center
Sun 02:20:09 PM 34.9000 -82.2583 182° South 411 473 40,000  Level Atlanta Center
Sun 02:21:09 PM 34.7833 -82.2683 184° South 411 473 40,000  Level Atlanta Center
Sun 02:22:09 PM 34.6708 -82.2783 184° South 411 473 40,000  Level Atlanta Center
Sun 02:23:09 PM 34.5561 -82.2858 183° South 411 473 40,000  Level Atlanta Center
Sun 02:24:09 PM 34.4414 -82.2933 183° South 411 473 40,000  Level Atlanta Center
Sun 02:25:09 PM 34.3289 -82.3031 184° South 411 473 40,000  Level Atlanta Center
Sun 02:26:09 PM 34.2119 -82.3106 183° South 411 473 40,000  Level Atlanta Center
Sun 02:27:09 PM 34.1078 -82.3178 183° South 418 481 40,000  Level Atlanta Center
Sun 02:28:09 PM 33.9911 -82.3275 184° South 429 494 40,000  Level Atlanta Center
Sun 02:29:09 PM 33.8783 -82.3347 183° South 417 480 40,000  Level Atlanta Center
Sun 02:30:09 PM 33.7617 -82.3422 183° South 424 488 40,000  Level Atlanta Center
Sun 02:31:09 PM 33.6450 -82.3544 185° South 423 487 40,000  Level Atlanta Center
Sun 02:32:09 PM 33.5178 -82.3644 184° South 423 487 40,000  Level Atlanta Center
Sun 02:33:09 PM 33.4092 -82.3714 183° South 415 478 40,000  Level Atlanta Center
Sun 02:34:09 PM 33.2925 -82.3811 184° South 423 487 40,000  Level Atlanta Center
Sun 02:35:09 PM 33.1736 -82.3883 183° South 423 487 40,000  Level Atlanta Center
Sun 02:36:09 PM 33.0589 -82.3981 184° South 423 487 40,000  Level Atlanta Center
Sun 02:37:41 PM 32.8817 -82.4128 184° South 400 460 40,000  Level Jacksonville Center
Sun 02:38:42 PM 32.7647 -82.4183 182° South 412 474 40,000  Level Jacksonville Center
Sun 02:39:42 PM 32.6500 -82.4286 184° South 417 480 40,000  Level Jacksonville Center
Sun 02:40:41 PM 32.5372 -82.4342 182° South 417 480 40,000  Level Jacksonville Center
Sun 02:41:41 PM 32.4225 -82.4447 184° South 422 486 40,000  Level Jacksonville Center
Sun 02:42:41 PM 32.3056 -82.4525 183° South 422 486 40,000  Level Jacksonville Center
Sun 02:43:42 PM 32.1889 -82.4606 183° South 422 486 40,000  Level Jacksonville Center
Sun 02:44:42 PM 32.0719 -82.4683 183° South 422 486 40,000  Level Jacksonville Center
Sun 02:45:41 PM 31.9550 -82.4764 183° South 422 486 40,000  Level Jacksonville Center
Sun 02:46:41 PM 31.8506 -82.4842 184° South 422 486 40,000  Level Jacksonville Center
Sun 02:47:41 PM 31.7317 -82.4919 183° South 422 486 40,000  Level Jacksonville Center
Sun 02:48:42 PM 31.6147 -82.4997 183° South 422 486 40,000 -400 Level Jacksonville Center
Sun 02:49:41 PM 31.4978 -82.5028 181° South 422 486 39,200 -958 Descending Jacksonville Center
Sun 02:50:41 PM 31.3808 -82.4764 169° South 422 486 38,100 -1,091 Descending Jacksonville Center
Sun 02:51:42 PM 31.2658 -82.4550 171° South 422 486 37,000 -1,041 Descending Jacksonville Center
Sun 02:52:42 PM 31.1489 -82.4339 171° South 428 493 36,000 -1,008 Descending Jacksonville Center
Sun 02:53:41 PM 31.0319 -82.4078 169° South 428 493 35,000 -1,008 Descending Jacksonville Center
Sun 02:54:41 PM 30.9128 -82.3864 171° South 428 493 34,000 -496 Descending Jacksonville Center
Sun 02:55:42 PM 30.7958 -82.3581 168° South 428 493 34,000  Level Jacksonville Center
Sun 02:56:42 PM 30.6786 -82.3369 171° South 428 493 34,000  Level Jacksonville Center
Sun 02:57:42 PM 30.5469 -82.3039 168° South 428 493 34,000 -100 Level Jacksonville Center
Sun 02:58:42 PM 30.4278 -82.2806 170° South 428 493 33,800 -750 Descending Jacksonville Center
Sun 02:59:42 PM 30.3108 -82.2572 170° South 428 493 32,500 -1,462 Descending Jacksonville Center
Sun 03:00:41 PM 30.1897 -82.2342 171° South 435 501 30,900 -1,700 Descending Jacksonville Center
Sun 03:01:42 PM 30.0683 -82.2061 169° South 442 509 29,100 -1,600 Descending Jacksonville Center
Sun 03:02:41 PM 29.9597 -82.1878 172° South 447 514 27,700 -1,550 Descending Jacksonville Center
Sun 03:03:42 PM 29.8447 -82.1406 160° South 447 514 26,000 -1,950 Descending Jacksonville Center
Sun 03:04:41 PM 29.7150 -82.0914 162° South 447 514 23,800 -2,118 Descending Jacksonville Center
Sun 03:05:41 PM 29.5997 -82.0469 161° South 447 514 21,800 -1,983 Descending Jacksonville Center
Sun 03:06:42 PM 29.4869 -82.0075 163° South 437 503 19,800 -1,587 Descending Jacksonville Center
Sun 03:07:42 PM 29.3758 -81.9656 162° South 432 497 18,600 -1,450 Descending Jacksonville Center
Sun 03:08:42 PM 29.2650 -81.9239 162° South 421 484 16,900 -1,850 Descending Jacksonville Center
Sun 03:09:42 PM 29.1581 -81.8819 161° South 421 484 14,900 -2,000 Descending Jacksonville Center
Sun 03:10:42 PM 29.0514 -81.8428 162° South 416 479 12,900 -1,450 Descending Jacksonville Center
Sun 03:11:42 PM 28.9550 -81.7914 155° Southeast 401 461 12,000 -850 Descending Jacksonville Center
Sun 03:12:42 PM 28.8811 -81.7094 136° Southeast 380 437 11,200 -908 Descending Jacksonville Center
Sun 03:13:41 PM 28.8033 -81.6344 140° Southeast 370 426 10,200 -1,056 Descending Jacksonville Center
Sun 03:14:30 PM 28.7500 -81.5667 132° Southeast 312 359 9,300 -626 Descending Orlando TRACON
Sun 03:15:36 PM 28.6833 -81.5000 139° Southeast 311 358 9,000 -143 Descending Orlando TRACON
Sun 03:16:36 PM 28.6167 -81.4333 139° Southeast 287 330 9,000 -50 Level Orlando TRACON
Sun 03:17:36 PM 28.5500 -81.4167 168° South 261 300 8,900 -800 Descending Orlando TRACON
Sun 03:18:36 PM 28.4667 -81.4167 180° South 247 284 7,400 -1,600 Descending Orlando TRACON
Sun 03:19:36 PM 28.4000 -81.4167 180° South 240 276 5,700 -1,785 Descending Orlando TRACON
Sun 03:20:37 PM 28.3333 -81.4167 180° South 241 277 3,800 -1,339 Descending Orlando TRACON
Sun 03:21:37 PM 28.2833 -81.4000 164° South 189 217 3,000 -600 Descending Orlando TRACON
Sun 03:22:37 PM 28.3000 -81.3500 69° East 159 183 2,600 -600 Descending Orlando TRACON
Sun 03:23:37 PM 28.3333 -81.3333 24° Northeast 151 174 1,800 -750 Descending Orlando TRACON
Sun 03:24:37 PM 28.3667 -81.3333 360° North 151 174 1,100 -744 Descending Orlando TRACON
Sun 03:25:38 PM 28.4167 -81.3333 360° North 111 128 300 -787 Descending Orlando TRACON
Sun 03:27:00 PM 28.4167 -81.3000 24° Northeast  Level FlightAware Approximate
Sun 03:34:00 PM 28.4294 -81.3090 24° Northeast  Level Estimated
Sun 03:35:00 PM 28.4294 -81.3090 24° Northeast  Level Estimated
Sun 03:36:00 PM 28.4294 -81.3090 24° Northeast  Level Estimated
Sun 03:37:00 PM 28.4294 -81.3090 24° Northeast  Level Estimated

Login

Don't have an account? Register now (free) for customized features, flight alerts, and more!